sensor_id;sensor_type;location;lat;lon;timestamp;P1;durP1;ratioP1;P2;durP2;ratioP2
19038;SDS011;9652;49.014;12.052;2023-05-03T00:01:57;5.40;;;4.53;;
19038;SDS011;9652;49.014;12.052;2023-05-03T00:04:26;6.10;;;4.33;;
19038;SDS011;9652;49.014;12.052;2023-05-03T00:06:57;5.10;;;4.70;;
19038;SDS011;9652;49.014;12.052;2023-05-03T00:09:24;5.00;;;4.60;;
19038;SDS011;9652;49.014;12.052;2023-05-03T00:11:51;4.80;;;4.30;;
19038;SDS011;9652;49.014;12.052;2023-05-03T00:14:18;5.57;;;5.07;;
19038;SDS011;9652;49.014;12.052;2023-05-03T00:16:45;5.27;;;4.77;;
19038;SDS011;9652;49.014;12.052;2023-05-03T00:19:12;5.73;;;5.13;;
19038;SDS011;9652;49.014;12.052;2023-05-03T00:21:39;6.27;;;4.40;;
19038;SDS011;9652;49.014;12.052;2023-05-03T00:24:08;5.30;;;4.80;;
19038;SDS011;9652;49.014;12.052;2023-05-03T00:26:35;5.23;;;4.77;;
19038;SDS011;9652;49.014;12.052;2023-05-03T00:29:02;5.57;;;5.07;;
19038;SDS011;9652;49.014;12.052;2023-05-03T00:31:29;5.33;;;4.70;;
19038;SDS011;9652;49.014;12.052;2023-05-03T00:33:56;4.70;;;4.20;;
19038;SDS011;9652;49.014;12.052;2023-05-03T00:36:23;5.17;;;4.40;;
19038;SDS011;9652;49.014;12.052;2023-05-03T00:38:52;4.90;;;4.50;;
19038;SDS011;9652;49.014;12.052;2023-05-03T00:41:20;4.67;;;4.17;;
19038;SDS011;9652;49.014;12.052;2023-05-03T00:43:48;5.50;;;4.77;;
19038;SDS011;9652;49.014;12.052;2023-05-03T00:46:15;5.40;;;4.77;;
19038;SDS011;9652;49.014;12.052;2023-05-03T00:48:43;5.10;;;4.43;;
19038;SDS011;9652;49.014;12.052;2023-05-03T00:51:11;5.60;;;5.00;;
19038;SDS011;9652;49.014;12.052;2023-05-03T00:53:40;5.20;;;4.70;;
19038;SDS011;9652;49.014;12.052;2023-05-03T00:56:08;5.57;;;5.03;;
19038;SDS011;9652;49.014;12.052;2023-05-03T00:58:37;6.57;;;5.10;;
19038;SDS011;9652;49.014;12.052;2023-05-03T01:01:05;5.97;;;5.37;;
19038;SDS011;9652;49.014;12.052;2023-05-03T01:03:32;4.87;;;4.37;;
19038;SDS011;9652;49.014;12.052;2023-05-03T01:06:03;5.47;;;4.97;;
19038;SDS011;9652;49.014;12.052;2023-05-03T01:08:39;5.73;;;5.13;;
19038;SDS011;9652;49.014;12.052;2023-05-03T01:11:18;6.73;;;4.90;;
19038;SDS011;9652;49.014;12.052;2023-05-03T01:13:53;4.93;;;4.53;;
19038;SDS011;9652;49.014;12.052;2023-05-03T01:16:39;5.37;;;4.87;;
19038;SDS011;9652;49.014;12.052;2023-05-03T01:19:16;6.07;;;5.27;;
19038;SDS011;9652;49.014;12.052;2023-05-03T01:21:56;6.17;;;5.17;;
19038;SDS011;9652;49.014;12.052;2023-05-03T01:24:39;5.70;;;5.10;;
19038;SDS011;9652;49.014;12.052;2023-05-03T01:27:12;6.47;;;4.97;;
19038;SDS011;9652;49.014;12.052;2023-05-03T01:29:39;6.30;;;5.43;;
19038;SDS011;9652;49.014;12.052;2023-05-03T01:32:08;5.93;;;5.43;;
19038;SDS011;9652;49.014;12.052;2023-05-03T01:34:47;6.13;;;5.53;;
19038;SDS011;9652;49.014;12.052;2023-05-03T01:37:23;5.83;;;5.20;;
19038;SDS011;9652;49.014;12.052;2023-05-03T01:39:52;5.23;;;4.73;;
19038;SDS011;9652;49.014;12.052;2023-05-03T01:42:27;5.97;;;5.47;;
19038;SDS011;9652;49.014;12.052;2023-05-03T01:44:56;6.23;;;5.30;;
19038;SDS011;9652;49.014;12.052;2023-05-03T01:47:25;6.17;;;5.53;;
19038;SDS011;9652;49.014;12.052;2023-05-03T01:49:52;5.13;;;4.57;;
19038;SDS011;9652;49.014;12.052;2023-05-03T01:52:19;5.50;;;4.90;;
19038;SDS011;9652;49.014;12.052;2023-05-03T01:54:46;9.23;;;5.43;;
19038;SDS011;9652;49.014;12.052;2023-05-03T01:57:14;6.20;;;4.90;;
19038;SDS011;9652;49.014;12.052;2023-05-03T01:59:42;7.57;;;6.10;;
19038;SDS011;9652;49.014;12.052;2023-05-03T02:02:09;6.77;;;5.97;;
19038;SDS011;9652;49.014;12.052;2023-05-03T02:04:36;7.53;;;6.23;;
19038;SDS011;9652;49.014;12.052;2023-05-03T02:07:03;7.30;;;6.30;;
19038;SDS011;9652;49.014;12.052;2023-05-03T02:09:30;6.77;;;5.90;;
19038;SDS011;9652;49.014;12.052;2023-05-03T02:11:57;6.43;;;5.83;;
19038;SDS011;9652;49.014;12.052;2023-05-03T02:14:24;7.13;;;6.20;;
19038;SDS011;9652;49.014;12.052;2023-05-03T02:16:52;7.03;;;5.67;;
19038;SDS011;9652;49.014;12.052;2023-05-03T02:19:20;6.03;;;5.43;;
19038;SDS011;9652;49.014;12.052;2023-05-03T02:21:47;7.73;;;5.43;;
19038;SDS011;9652;49.014;12.052;2023-05-03T02:24:14;7.70;;;6.47;;
19038;SDS011;9652;49.014;12.052;2023-05-03T02:26:41;7.20;;;5.67;;
19038;SDS011;9652;49.014;12.052;2023-05-03T02:29:08;6.60;;;5.90;;
19038;SDS011;9652;49.014;12.052;2023-05-03T02:31:36;6.37;;;5.60;;
19038;SDS011;9652;49.014;12.052;2023-05-03T02:34:04;6.10;;;5.50;;
19038;SDS011;9652;49.014;12.052;2023-05-03T02:36:31;6.27;;;5.67;;
19038;SDS011;9652;49.014;12.052;2023-05-03T02:39:00;7.30;;;5.77;;
19038;SDS011;9652;49.014;12.052;2023-05-03T02:41:27;7.97;;;5.90;;
19038;SDS011;9652;49.014;12.052;2023-05-03T02:43:55;6.57;;;5.70;;
19038;SDS011;9652;49.014;12.052;2023-05-03T02:46:25;8.73;;;6.33;;
19038;SDS011;9652;49.014;12.052;2023-05-03T02:48:52;7.57;;;6.03;;
19038;SDS011;9652;49.014;12.052;2023-05-03T02:51:20;12.00;;;6.00;;
19038;SDS011;9652;49.014;12.052;2023-05-03T02:53:47;6.67;;;5.23;;
19038;SDS011;9652;49.014;12.052;2023-05-03T02:56:14;7.53;;;6.27;;
19038;SDS011;9652;49.014;12.052;2023-05-03T02:58:41;6.50;;;5.90;;
19038;SDS011;9652;49.014;12.052;2023-05-03T03:01:09;6.83;;;5.17;;
19038;SDS011;9652;49.014;12.052;2023-05-03T03:03:36;6.67;;;6.00;;
19038;SDS011;9652;49.014;12.052;2023-05-03T03:06:04;10.20;;;6.53;;
19038;SDS011;9652;49.014;12.052;2023-05-03T03:08:35;7.03;;;6.03;;
19038;SDS011;9652;49.014;12.052;2023-05-03T03:11:03;9.60;;;6.47;;
19038;SDS011;9652;49.014;12.052;2023-05-03T03:13:31;6.97;;;6.13;;
19038;SDS011;9652;49.014;12.052;2023-05-03T03:16:04;9.17;;;6.70;;
19038;SDS011;9652;49.014;12.052;2023-05-03T03:18:31;10.13;;;7.10;;
19038;SDS011;9652;49.014;12.052;2023-05-03T03:21:01;7.77;;;6.17;;
19038;SDS011;9652;49.014;12.052;2023-05-03T03:23:29;8.70;;;6.20;;
19038;SDS011;9652;49.014;12.052;2023-05-03T03:25:58;8.00;;;6.23;;
19038;SDS011;9652;49.014;12.052;2023-05-03T03:28:25;7.57;;;6.50;;
19038;SDS011;9652;49.014;12.052;2023-05-03T03:30:55;12.70;;;6.03;;
19038;SDS011;9652;49.014;12.052;2023-05-03T03:33:23;6.63;;;5.73;;
19038;SDS011;9652;49.014;12.052;2023-05-03T03:35:54;9.43;;;5.87;;
19038;SDS011;9652;49.014;12.052;2023-05-03T03:38:26;6.57;;;5.90;;
19038;SDS011;9652;49.014;12.052;2023-05-03T03:41:00;6.67;;;6.00;;
19038;SDS011;9652;49.014;12.052;2023-05-03T03:43:28;8.23;;;6.57;;
19038;SDS011;9652;49.014;12.052;2023-05-03T03:45:56;6.67;;;6.07;;
19038;SDS011;9652;49.014;12.052;2023-05-03T03:48:23;8.27;;;6.20;;
19038;SDS011;9652;49.014;12.052;2023-05-03T03:50:50;7.03;;;6.00;;
19038;SDS011;9652;49.014;12.052;2023-05-03T03:53:21;7.40;;;5.70;;
19038;SDS011;9652;49.014;12.052;2023-05-03T03:55:48;6.80;;;6.13;;
19038;SDS011;9652;49.014;12.052;2023-05-03T03:58:19;6.07;;;5.47;;
19038;SDS011;9652;49.014;12.052;2023-05-03T04:00:46;6.53;;;5.83;;
19038;SDS011;9652;49.014;12.052;2023-05-03T04:03:17;8.93;;;6.57;;
19038;SDS011;9652;49.014;12.052;2023-05-03T04:05:45;9.10;;;7.57;;
19038;SDS011;9652;49.014;12.052;2023-05-03T04:08:13;8.63;;;6.57;;
19038;SDS011;9652;49.014;12.052;2023-05-03T04:10:41;10.67;;;6.97;;
19038;SDS011;9652;49.014;12.052;2023-05-03T04:13:08;7.83;;;6.70;;
19038;SDS011;9652;49.014;12.052;2023-05-03T04:15:37;8.83;;;6.03;;
19038;SDS011;9652;49.014;12.052;2023-05-03T04:18:05;7.30;;;6.30;;
19038;SDS011;9652;49.014;12.052;2023-05-03T04:20:35;7.33;;;6.13;;
19038;SDS011;9652;49.014;12.052;2023-05-03T04:23:04;7.00;;;6.17;;
19038;SDS011;9652;49.014;12.052;2023-05-03T04:25:31;8.47;;;6.13;;
19038;SDS011;9652;49.014;12.052;2023-05-03T04:28:06;8.73;;;6.53;;
19038;SDS011;9652;49.014;12.052;2023-05-03T04:30:39;7.03;;;6.33;;
19038;SDS011;9652;49.014;12.052;2023-05-03T04:33:07;8.00;;;6.43;;
19038;SDS011;9652;49.014;12.052;2023-05-03T04:35:35;8.33;;;6.03;;
19038;SDS011;9652;49.014;12.052;2023-05-03T04:38:07;8.10;;;6.40;;
19038;SDS011;9652;49.014;12.052;2023-05-03T04:40:36;8.00;;;6.30;;
19038;SDS011;9652;49.014;12.052;2023-05-03T04:43:08;7.53;;;6.73;;
19038;SDS011;9652;49.014;12.052;2023-05-03T04:45:40;8.53;;;6.40;;
19038;SDS011;9652;49.014;12.052;2023-05-03T04:48:11;8.83;;;6.73;;
19038;SDS011;9652;49.014;12.052;2023-05-03T04:50:39;7.43;;;6.63;;
19038;SDS011;9652;49.014;12.052;2023-05-03T04:53:08;9.30;;;6.67;;
19038;SDS011;9652;49.014;12.052;2023-05-03T04:55:40;10.03;;;8.23;;
19038;SDS011;9652;49.014;12.052;2023-05-03T04:58:07;8.80;;;7.80;;
19038;SDS011;9652;49.014;12.052;2023-05-03T05:00:36;11.20;;;7.63;;
19038;SDS011;9652;49.014;12.052;2023-05-03T05:03:11;9.30;;;7.03;;
19038;SDS011;9652;49.014;12.052;2023-05-03T05:05:38;9.53;;;7.53;;
19038;SDS011;9652;49.014;12.052;2023-05-03T05:08:07;9.80;;;7.47;;
19038;SDS011;9652;49.014;12.052;2023-05-03T05:10:40;10.97;;;8.10;;
19038;SDS011;9652;49.014;12.052;2023-05-03T05:13:10;9.93;;;7.57;;
19038;SDS011;9652;49.014;12.052;2023-05-03T05:15:40;8.63;;;7.20;;
19038;SDS011;9652;49.014;12.052;2023-05-03T05:18:08;10.23;;;7.47;;
19038;SDS011;9652;49.014;12.052;2023-05-03T05:20:38;14.13;;;8.20;;
19038;SDS011;9652;49.014;12.052;2023-05-03T05:23:06;13.50;;;8.07;;
19038;SDS011;9652;49.014;12.052;2023-05-03T05:25:34;9.27;;;7.57;;
19038;SDS011;9652;49.014;12.052;2023-05-03T05:28:02;12.57;;;8.03;;
19038;SDS011;9652;49.014;12.052;2023-05-03T05:30:29;11.97;;;8.93;;
19038;SDS011;9652;49.014;12.052;2023-05-03T05:32:57;11.23;;;8.60;;
19038;SDS011;9652;49.014;12.052;2023-05-03T05:35:24;9.40;;;7.53;;
19038;SDS011;9652;49.014;12.052;2023-05-03T05:37:53;13.40;;;8.20;;
19038;SDS011;9652;49.014;12.052;2023-05-03T05:40:20;10.60;;;8.03;;
19038;SDS011;9652;49.014;12.052;2023-05-03T05:42:53;10.00;;;7.93;;
19038;SDS011;9652;49.014;12.052;2023-05-03T05:45:22;9.97;;;7.73;;
19038;SDS011;9652;49.014;12.052;2023-05-03T05:47:51;9.90;;;6.63;;
19038;SDS011;9652;49.014;12.052;2023-05-03T05:50:18;8.93;;;6.80;;
19038;SDS011;9652;49.014;12.052;2023-05-03T05:52:53;10.47;;;6.40;;
19038;SDS011;9652;49.014;12.052;2023-05-03T05:55:22;8.77;;;6.60;;
19038;SDS011;9652;49.014;12.052;2023-05-03T05:57:49;9.50;;;7.07;;
19038;SDS011;9652;49.014;12.052;2023-05-03T06:00:20;8.30;;;6.60;;
19038;SDS011;9652;49.014;12.052;2023-05-03T06:02:48;9.20;;;6.53;;
19038;SDS011;9652;49.014;12.052;2023-05-03T06:05:18;8.23;;;6.73;;
19038;SDS011;9652;49.014;12.052;2023-05-03T06:07:46;7.80;;;6.83;;
19038;SDS011;9652;49.014;12.052;2023-05-03T06:10:14;8.37;;;6.67;;
19038;SDS011;9652;49.014;12.052;2023-05-03T06:12:45;8.70;;;6.37;;
19038;SDS011;9652;49.014;12.052;2023-05-03T06:15:20;9.33;;;6.67;;
19038;SDS011;9652;49.014;12.052;2023-05-03T06:17:47;8.43;;;6.83;;
19038;SDS011;9652;49.014;12.052;2023-05-03T06:20:16;9.37;;;6.77;;
19038;SDS011;9652;49.014;12.052;2023-05-03T06:22:43;8.90;;;6.70;;
19038;SDS011;9652;49.014;12.052;2023-05-03T06:25:11;8.70;;;7.57;;
19038;SDS011;9652;49.014;12.052;2023-05-03T06:27:43;9.97;;;7.57;;
19038;SDS011;9652;49.014;12.052;2023-05-03T06:30:11;9.57;;;7.10;;
19038;SDS011;9652;49.014;12.052;2023-05-03T06:32:40;9.53;;;6.80;;
19038;SDS011;9652;49.014;12.052;2023-05-03T06:35:09;8.87;;;6.83;;
19038;SDS011;9652;49.014;12.052;2023-05-03T06:37:38;10.47;;;7.87;;
19038;SDS011;9652;49.014;12.052;2023-05-03T06:40:06;9.87;;;7.30;;
19038;SDS011;9652;49.014;12.052;2023-05-03T06:42:35;9.97;;;7.80;;
19038;SDS011;9652;49.014;12.052;2023-05-03T06:45:13;8.77;;;6.63;;
19038;SDS011;9652;49.014;12.052;2023-05-03T06:47:40;8.43;;;6.33;;
19038;SDS011;9652;49.014;12.052;2023-05-03T06:50:07;9.37;;;7.47;;
19038;SDS011;9652;49.014;12.052;2023-05-03T06:52:35;10.23;;;7.10;;
19038;SDS011;9652;49.014;12.052;2023-05-03T06:55:02;9.43;;;7.40;;
19038;SDS011;9652;49.014;12.052;2023-05-03T06:57:30;9.00;;;7.70;;
19038;SDS011;9652;49.014;12.052;2023-05-03T06:59:57;9.33;;;7.60;;
19038;SDS011;9652;49.014;12.052;2023-05-03T07:02:26;9.63;;;6.83;;
19038;SDS011;9652;49.014;12.052;2023-05-03T07:04:53;9.17;;;7.17;;
19038;SDS011;9652;49.014;12.052;2023-05-03T07:07:20;8.77;;;7.33;;
19038;SDS011;9652;49.014;12.052;2023-05-03T07:09:47;14.07;;;7.67;;
19038;SDS011;9652;49.014;12.052;2023-05-03T07:12:14;9.43;;;6.93;;
19038;SDS011;9652;49.014;12.052;2023-05-03T07:14:41;10.70;;;8.20;;
19038;SDS011;9652;49.014;12.052;2023-05-03T07:17:09;10.77;;;7.33;;
19038;SDS011;9652;49.014;12.052;2023-05-03T07:19:37;14.80;;;7.57;;
19038;SDS011;9652;49.014;12.052;2023-05-03T07:22:04;8.70;;;6.53;;
19038;SDS011;9652;49.014;12.052;2023-05-03T07:24:31;9.50;;;7.63;;
19038;SDS011;9652;49.014;12.052;2023-05-03T07:26:58;9.50;;;7.33;;
19038;SDS011;9652;49.014;12.052;2023-05-03T07:29:25;10.73;;;7.20;;
19038;SDS011;9652;49.014;12.052;2023-05-03T07:31:52;8.77;;;6.83;;
19038;SDS011;9652;49.014;12.052;2023-05-03T07:34:20;8.03;;;6.70;;
19038;SDS011;9652;49.014;12.052;2023-05-03T07:36:48;9.20;;;7.00;;
19038;SDS011;9652;49.014;12.052;2023-05-03T07:39:16;9.00;;;6.30;;
19038;SDS011;9652;49.014;12.052;2023-05-03T07:41:43;10.97;;;6.90;;
19038;SDS011;9652;49.014;12.052;2023-05-03T07:44:11;10.90;;;7.57;;
19038;SDS011;9652;49.014;12.052;2023-05-03T07:46:38;11.90;;;7.13;;
19038;SDS011;9652;49.014;12.052;2023-05-03T07:49:04;12.97;;;7.90;;
19038;SDS011;9652;49.014;12.052;2023-05-03T07:51:33;10.07;;;7.73;;
19038;SDS011;9652;49.014;12.052;2023-05-03T07:54:03;9.67;;;7.87;;
19038;SDS011;9652;49.014;12.052;2023-05-03T07:56:30;10.47;;;7.17;;
19038;SDS011;9652;49.014;12.052;2023-05-03T07:58:58;10.80;;;7.20;;
19038;SDS011;9652;49.014;12.052;2023-05-03T08:01:25;9.83;;;7.93;;
19038;SDS011;9652;49.014;12.052;2023-05-03T08:03:52;9.40;;;7.13;;
19038;SDS011;9652;49.014;12.052;2023-05-03T08:06:18;11.00;;;8.03;;
19038;SDS011;9652;49.014;12.052;2023-05-03T08:08:45;9.83;;;7.67;;
19038;SDS011;9652;49.014;12.052;2023-05-03T08:11:14;13.23;;;8.23;;
19038;SDS011;9652;49.014;12.052;2023-05-03T08:13:41;11.30;;;7.93;;
19038;SDS011;9652;49.014;12.052;2023-05-03T08:16:08;9.40;;;7.03;;
19038;SDS011;9652;49.014;12.052;2023-05-03T08:18:35;10.40;;;7.33;;
19038;SDS011;9652;49.014;12.052;2023-05-03T08:21:02;8.90;;;7.13;;
19038;SDS011;9652;49.014;12.052;2023-05-03T08:23:30;8.87;;;5.93;;
19038;SDS011;9652;49.014;12.052;2023-05-03T08:25:57;7.10;;;5.97;;
19038;SDS011;9652;49.014;12.052;2023-05-03T08:28:26;8.63;;;6.50;;
19038;SDS011;9652;49.014;12.052;2023-05-03T08:30:54;8.77;;;6.67;;
19038;SDS011;9652;49.014;12.052;2023-05-03T08:33:21;8.67;;;6.07;;
19038;SDS011;9652;49.014;12.052;2023-05-03T08:35:49;9.30;;;6.67;;
19038;SDS011;9652;49.014;12.052;2023-05-03T08:38:16;8.00;;;6.10;;
19038;SDS011;9652;49.014;12.052;2023-05-03T08:40:43;7.30;;;5.87;;
19038;SDS011;9652;49.014;12.052;2023-05-03T08:43:17;12.57;;;6.93;;
19038;SDS011;9652;49.014;12.052;2023-05-03T08:45:47;7.17;;;5.90;;
19038;SDS011;9652;49.014;12.052;2023-05-03T08:48:15;11.40;;;6.77;;
19038;SDS011;9652;49.014;12.052;2023-05-03T08:50:42;8.57;;;6.70;;
19038;SDS011;9652;49.014;12.052;2023-05-03T08:53:09;10.00;;;6.90;;
19038;SDS011;9652;49.014;12.052;2023-05-03T08:55:37;11.60;;;7.00;;
19038;SDS011;9652;49.014;12.052;2023-05-03T08:58:07;9.07;;;6.27;;
19038;SDS011;9652;49.014;12.052;2023-05-03T09:00:36;11.63;;;6.17;;
19038;SDS011;9652;49.014;12.052;2023-05-03T09:03:07;10.00;;;6.83;;
19038;SDS011;9652;49.014;12.052;2023-05-03T09:05:34;8.57;;;6.17;;
19038;SDS011;9652;49.014;12.052;2023-05-03T09:08:05;7.70;;;6.27;;
19038;SDS011;9652;49.014;12.052;2023-05-03T09:10:36;8.30;;;6.43;;
19038;SDS011;9652;49.014;12.052;2023-05-03T09:13:05;9.30;;;6.70;;
19038;SDS011;9652;49.014;12.052;2023-05-03T09:15:33;7.20;;;5.90;;
19038;SDS011;9652;49.014;12.052;2023-05-03T09:18:09;7.80;;;6.20;;
19038;SDS011;9652;49.014;12.052;2023-05-03T09:20:40;8.63;;;5.77;;
19038;SDS011;9652;49.014;12.052;2023-05-03T09:23:15;6.77;;;5.40;;
19038;SDS011;9652;49.014;12.052;2023-05-03T09:25:43;8.47;;;6.27;;
19038;SDS011;9652;49.014;12.052;2023-05-03T09:28:12;6.20;;;5.30;;
19038;SDS011;9652;49.014;12.052;2023-05-03T09:30:41;7.90;;;6.17;;
19038;SDS011;9652;49.014;12.052;2023-05-03T09:33:10;6.87;;;5.80;;
19038;SDS011;9652;49.014;12.052;2023-05-03T09:35:54;7.10;;;6.07;;
19038;SDS011;9652;49.014;12.052;2023-05-03T09:38:27;6.83;;;5.33;;
19038;SDS011;9652;49.014;12.052;2023-05-03T09:40:55;9.77;;;5.67;;
19038;SDS011;9652;49.014;12.052;2023-05-03T09:43:23;7.40;;;4.97;;
19038;SDS011;9652;49.014;12.052;2023-05-03T09:45:50;7.60;;;5.07;;
19038;SDS011;9652;49.014;12.052;2023-05-03T09:48:18;6.67;;;5.47;;
19038;SDS011;9652;49.014;12.052;2023-05-03T09:50:47;8.13;;;5.40;;
19038;SDS011;9652;49.014;12.052;2023-05-03T09:53:15;6.63;;;4.87;;
19038;SDS011;9652;49.014;12.052;2023-05-03T09:55:46;6.67;;;4.97;;
19038;SDS011;9652;49.014;12.052;2023-05-03T09:58:15;6.80;;;4.97;;
19038;SDS011;9652;49.014;12.052;2023-05-03T10:00:45;6.00;;;4.67;;
19038;SDS011;9652;49.014;12.052;2023-05-03T10:03:17;6.33;;;4.97;;
19038;SDS011;9652;49.014;12.052;2023-05-03T10:05:52;8.80;;;4.83;;
19038;SDS011;9652;49.014;12.052;2023-05-03T10:08:23;8.70;;;5.10;;
19038;SDS011;9652;49.014;12.052;2023-05-03T10:10:58;6.77;;;4.73;;
19038;SDS011;9652;49.014;12.052;2023-05-03T10:13:27;5.53;;;4.30;;
19038;SDS011;9652;49.014;12.052;2023-05-03T10:15:56;5.87;;;4.50;;
19038;SDS011;9652;49.014;12.052;2023-05-03T10:18:30;5.87;;;4.57;;
19038;SDS011;9652;49.014;12.052;2023-05-03T10:21:00;7.87;;;4.97;;
19038;SDS011;9652;49.014;12.052;2023-05-03T10:23:34;6.60;;;4.90;;
19038;SDS011;9652;49.014;12.052;2023-05-03T10:26:11;6.17;;;4.93;;
19038;SDS011;9652;49.014;12.052;2023-05-03T10:28:39;5.30;;;4.37;;
19038;SDS011;9652;49.014;12.052;2023-05-03T10:34:21;6.10;;;4.57;;
19038;SDS011;9652;49.014;12.052;2023-05-03T10:36:49;6.07;;;4.73;;
19038;SDS011;9652;49.014;12.052;2023-05-03T10:39:18;5.43;;;4.77;;
19038;SDS011;9652;49.014;12.052;2023-05-03T10:41:55;6.70;;;4.90;;
19038;SDS011;9652;49.014;12.052;2023-05-03T10:44:27;7.43;;;4.53;;
19038;SDS011;9652;49.014;12.052;2023-05-03T10:47:09;6.47;;;4.07;;
19038;SDS011;9652;49.014;12.052;2023-05-03T10:49:40;5.43;;;4.50;;
19038;SDS011;9652;49.014;12.052;2023-05-03T10:55:12;6.07;;;4.10;;
19038;SDS011;9652;49.014;12.052;2023-05-03T10:57:42;5.60;;;4.33;;
19038;SDS011;9652;49.014;12.052;2023-05-03T11:00:13;5.63;;;4.33;;
19038;SDS011;9652;49.014;12.052;2023-05-03T11:02:53;6.63;;;3.57;;
19038;SDS011;9652;49.014;12.052;2023-05-03T11:05:47;6.33;;;4.17;;
19038;SDS011;9652;49.014;12.052;2023-05-03T11:08:15;7.33;;;4.20;;
19038;SDS011;9652;49.014;12.052;2023-05-03T11:10:45;4.73;;;4.13;;
19038;SDS011;9652;49.014;12.052;2023-05-03T11:13:13;5.83;;;4.10;;
19038;SDS011;9652;49.014;12.052;2023-05-03T11:15:41;7.47;;;4.40;;
19038;SDS011;9652;49.014;12.052;2023-05-03T11:18:09;4.93;;;3.93;;
19038;SDS011;9652;49.014;12.052;2023-05-03T11:20:36;5.37;;;4.67;;
19038;SDS011;9652;49.014;12.052;2023-05-03T11:23:05;7.07;;;4.40;;
19038;SDS011;9652;49.014;12.052;2023-05-03T11:25:32;4.17;;;3.43;;
19038;SDS011;9652;49.014;12.052;2023-05-03T11:28:00;5.83;;;4.23;;
19038;SDS011;9652;49.014;12.052;2023-05-03T11:30:28;4.10;;;3.70;;
19038;SDS011;9652;49.014;12.052;2023-05-03T11:32:57;4.93;;;3.83;;
19038;SDS011;9652;49.014;12.052;2023-05-03T11:35:27;4.33;;;3.73;;
19038;SDS011;9652;49.014;12.052;2023-05-03T11:37:56;7.30;;;4.30;;
19038;SDS011;9652;49.014;12.052;2023-05-03T11:40:24;4.70;;;3.97;;
19038;SDS011;9652;49.014;12.052;2023-05-03T11:42:52;4.40;;;4.00;;
19038;SDS011;9652;49.014;12.052;2023-05-03T11:45:21;5.40;;;4.00;;
19038;SDS011;9652;49.014;12.052;2023-05-03T11:47:50;5.30;;;4.50;;
19038;SDS011;9652;49.014;12.052;2023-05-03T11:50:25;4.27;;;3.53;;
19038;SDS011;9652;49.014;12.052;2023-05-03T11:53:09;5.17;;;4.30;;
19038;SDS011;9652;49.014;12.052;2023-05-03T11:55:38;7.23;;;4.30;;
19038;SDS011;9652;49.014;12.052;2023-05-03T11:58:08;5.13;;;4.33;;
19038;SDS011;9652;49.014;12.052;2023-05-03T12:00:41;5.10;;;3.87;;
19038;SDS011;9652;49.014;12.052;2023-05-03T12:03:09;6.67;;;3.70;;
19038;SDS011;9652;49.014;12.052;2023-05-03T12:05:42;6.40;;;4.07;;
19038;SDS011;9652;49.014;12.052;2023-05-03T12:08:09;5.27;;;4.20;;
19038;SDS011;9652;49.014;12.052;2023-05-03T12:10:36;5.03;;;4.23;;
19038;SDS011;9652;49.014;12.052;2023-05-03T12:13:06;5.90;;;4.53;;
19038;SDS011;9652;49.014;12.052;2023-05-03T12:15:34;6.80;;;4.60;;
19038;SDS011;9652;49.014;12.052;2023-05-03T12:18:03;4.50;;;3.87;;
19038;SDS011;9652;49.014;12.052;2023-05-03T12:20:33;4.63;;;3.70;;
19038;SDS011;9652;49.014;12.052;2023-05-03T12:23:03;4.63;;;3.50;;
19038;SDS011;9652;49.014;12.052;2023-05-03T12:25:32;4.40;;;3.73;;
19038;SDS011;9652;49.014;12.052;2023-05-03T12:28:03;4.70;;;3.80;;
19038;SDS011;9652;49.014;12.052;2023-05-03T12:30:32;4.20;;;3.80;;
19038;SDS011;9652;49.014;12.052;2023-05-03T12:32:59;6.13;;;3.83;;
19038;SDS011;9652;49.014;12.052;2023-05-03T12:35:26;6.00;;;4.83;;
19038;SDS011;9652;49.014;12.052;2023-05-03T12:37:53;5.47;;;4.30;;
19038;SDS011;9652;49.014;12.052;2023-05-03T12:40:20;5.17;;;3.83;;
19038;SDS011;9652;49.014;12.052;2023-05-03T12:42:52;5.43;;;3.93;;
19038;SDS011;9652;49.014;12.052;2023-05-03T12:45:21;5.60;;;3.77;;
19038;SDS011;9652;49.014;12.052;2023-05-03T12:47:48;4.57;;;3.53;;
19038;SDS011;9652;49.014;12.052;2023-05-03T12:50:15;4.73;;;3.83;;
19038;SDS011;9652;49.014;12.052;2023-05-03T12:52:42;4.53;;;3.47;;
19038;SDS011;9652;49.014;12.052;2023-05-03T12:55:09;4.50;;;3.90;;
19038;SDS011;9652;49.014;12.052;2023-05-03T12:57:36;5.03;;;3.87;;
19038;SDS011;9652;49.014;12.052;2023-05-03T13:00:04;3.83;;;3.13;;
19038;SDS011;9652;49.014;12.052;2023-05-03T13:02:35;4.50;;;3.23;;
19038;SDS011;9652;49.014;12.052;2023-05-03T13:05:02;3.00;;;2.70;;
19038;SDS011;9652;49.014;12.052;2023-05-03T13:07:31;3.43;;;2.77;;
19038;SDS011;9652;49.014;12.052;2023-05-03T13:09:58;3.57;;;2.90;;
19038;SDS011;9652;49.014;12.052;2023-05-03T13:12:25;4.40;;;3.17;;
19038;SDS011;9652;49.014;12.052;2023-05-03T13:14:52;4.13;;;3.47;;
19038;SDS011;9652;49.014;12.052;2023-05-03T13:17:20;5.00;;;3.50;;
19038;SDS011;9652;49.014;12.052;2023-05-03T13:19:49;4.33;;;3.80;;
19038;SDS011;9652;49.014;12.052;2023-05-03T13:22:16;5.73;;;3.60;;
19038;SDS011;9652;49.014;12.052;2023-05-03T13:24:44;3.73;;;3.30;;
19038;SDS011;9652;49.014;12.052;2023-05-03T13:27:12;4.33;;;3.30;;
19038;SDS011;9652;49.014;12.052;2023-05-03T13:29:39;4.97;;;3.47;;
19038;SDS011;9652;49.014;12.052;2023-05-03T13:32:06;5.90;;;3.20;;
19038;SDS011;9652;49.014;12.052;2023-05-03T13:34:34;7.77;;;3.90;;
19038;SDS011;9652;49.014;12.052;2023-05-03T13:37:03;3.57;;;2.93;;
19038;SDS011;9652;49.014;12.052;2023-05-03T13:39:30;5.47;;;3.03;;
19038;SDS011;9652;49.014;12.052;2023-05-03T13:41:57;3.60;;;2.70;;
19038;SDS011;9652;49.014;12.052;2023-05-03T13:44:24;2.77;;;2.50;;
19038;SDS011;9652;49.014;12.052;2023-05-03T13:46:51;3.60;;;2.90;;
19038;SDS011;9652;49.014;12.052;2023-05-03T13:49:19;2.80;;;2.50;;
19038;SDS011;9652;49.014;12.052;2023-05-03T13:51:46;3.53;;;2.55;;
19038;SDS011;9652;49.014;12.052;2023-05-03T13:54:15;2.88;;;2.17;;
19038;SDS011;9652;49.014;12.052;2023-05-03T13:56:42;3.60;;;2.38;;
19038;SDS011;9652;49.014;12.052;2023-05-03T13:59:10;2.88;;;2.17;;
19038;SDS011;9652;49.014;12.052;2023-05-03T14:01:39;2.95;;;2.50;;
19038;SDS011;9652;49.014;12.052;2023-05-03T14:04:07;3.88;;;2.17;;
19038;SDS011;9652;49.014;12.052;2023-05-03T14:06:35;2.83;;;2.40;;
19038;SDS011;9652;49.014;12.052;2023-05-03T14:09:02;3.45;;;2.50;;
19038;SDS011;9652;49.014;12.052;2023-05-03T14:11:30;2.55;;;2.35;;
19038;SDS011;9652;49.014;12.052;2023-05-03T14:13:57;2.97;;;2.33;;
19038;SDS011;9652;49.014;12.052;2023-05-03T14:16:25;3.80;;;2.30;;
19038;SDS011;9652;49.014;12.052;2023-05-03T14:18:52;3.42;;;1.80;;
19038;SDS011;9652;49.014;12.052;2023-05-03T14:21:20;3.20;;;2.35;;
19038;SDS011;9652;49.014;12.052;2023-05-03T14:23:47;2.60;;;2.17;;
19038;SDS011;9652;49.014;12.052;2023-05-03T14:26:15;4.30;;;2.17;;
19038;SDS011;9652;49.014;12.052;2023-05-03T14:28:44;3.08;;;2.53;;
19038;SDS011;9652;49.014;12.052;2023-05-03T14:31:11;5.38;;;2.03;;
19038;SDS011;9652;49.014;12.052;2023-05-03T14:33:38;1.80;;;1.60;;
19038;SDS011;9652;49.014;12.052;2023-05-03T14:36:06;1.90;;;1.70;;
19038;SDS011;9652;49.014;12.052;2023-05-03T14:38:33;1.67;;;1.58;;
19038;SDS011;9652;49.014;12.052;2023-05-03T14:41:01;3.90;;;2.03;;
19038;SDS011;9652;49.014;12.052;2023-05-03T14:43:28;2.33;;;1.63;;
19038;SDS011;9652;49.014;12.052;2023-05-03T14:45:57;2.40;;;2.00;;
19038;SDS011;9652;49.014;12.052;2023-05-03T14:48:24;2.30;;;1.92;;
19038;SDS011;9652;49.014;12.052;2023-05-03T14:50:51;2.55;;;2.08;;
19038;SDS011;9652;49.014;12.052;2023-05-03T14:53:19;2.03;;;1.75;;
19038;SDS011;9652;49.014;12.052;2023-05-03T14:55:46;2.65;;;1.88;;
19038;SDS011;9652;49.014;12.052;2023-05-03T14:58:14;3.03;;;2.22;;
19038;SDS011;9652;49.014;12.052;2023-05-03T15:00:41;5.00;;;1.90;;
19038;SDS011;9652;49.014;12.052;2023-05-03T15:03:09;2.22;;;2.00;;